createdAt,value
2023-03-21T00:01:52.047Z,25.70
2023-03-21T00:05:52.043Z,25.67
2023-03-21T00:09:53.686Z,25.70
2023-03-21T00:13:51.846Z,25.67
2023-03-21T00:17:51.814Z,25.69
2023-03-21T00:22:06.343Z,25.66
2023-03-21T00:25:52.747Z,25.66
2023-03-21T00:29:51.690Z,25.67
2023-03-21T00:33:51.746Z,25.66
2023-03-21T00:37:51.917Z,25.64
2023-03-21T00:41:52.149Z,25.64
2023-03-21T00:45:52.019Z,25.64
2023-03-21T00:49:52.048Z,25.63
2023-03-21T00:53:52.014Z,25.62
2023-03-21T00:58:01.244Z,25.64
2023-03-21T01:01:52.943Z,25.62
2023-03-21T01:05:51.844Z,25.63
2023-03-21T01:09:51.790Z,25.62
2023-03-21T01:14:04.282Z,25.62
2023-03-21T01:17:52.867Z,25.62
2023-03-21T01:21:51.904Z,25.62
2023-03-21T01:25:51.934Z,25.63
2023-03-21T01:29:52.078Z,25.62
2023-03-21T01:33:52.279Z,25.57
2023-03-21T01:37:52.481Z,25.57
2023-03-21T01:41:52.650Z,25.57
2023-03-21T01:45:52.911Z,25.57
2023-03-21T01:49:53.033Z,25.60
2023-03-21T01:53:53.207Z,25.59
2023-03-21T01:58:04.763Z,25.56
2023-03-21T02:01:54.090Z,25.57
2023-03-21T02:05:53.063Z,25.59
2023-03-21T02:09:53.121Z,25.53
2023-03-21T02:14:01.103Z,25.57
2023-03-21T02:17:54.304Z,25.54
2023-03-21T02:21:53.233Z,25.54
2023-03-21T02:25:53.276Z,25.56
2023-03-21T02:29:53.401Z,25.53
2023-03-21T02:33:53.593Z,25.52
2023-03-21T02:38:00.087Z,25.54
2023-03-21T02:41:54.793Z,25.53
2023-03-21T02:45:53.896Z,25.50
2023-03-21T02:49:53.825Z,25.50
2023-03-21T02:54:20.030Z,25.52
2023-03-21T02:57:56.223Z,25.52
2023-03-21T03:01:54.110Z,25.52
2023-03-21T03:05:54.277Z,25.50
2023-03-21T03:09:54.498Z,25.47
2023-03-21T03:13:54.761Z,25.47
2023-03-21T03:17:54.847Z,25.49
2023-03-21T03:21:55.067Z,25.49
2023-03-21T03:25:55.293Z,25.50
2023-03-21T03:29:55.379Z,25.46
2023-03-21T03:33:55.452Z,25.47
2023-03-21T03:37:55.569Z,25.46
2023-03-21T03:42:10.137Z,25.46
2023-03-21T03:45:56.661Z,25.47
2023-03-21T03:49:55.714Z,25.46
2023-03-21T03:53:55.758Z,25.46
2023-03-21T03:57:55.696Z,25.47
2023-03-21T04:01:55.699Z,25.44
2023-03-21T04:05:55.689Z,25.43
2023-03-21T04:09:55.598Z,25.44
2023-03-21T04:13:55.585Z,25.43
2023-03-21T04:17:55.557Z,25.43
2023-03-21T04:21:55.540Z,25.42
2023-03-21T04:25:57.083Z,25.40
2023-03-21T04:29:55.447Z,25.42
2023-03-21T04:33:55.408Z,25.44
2023-03-21T04:37:55.553Z,25.43
2023-03-21T04:41:55.495Z,25.43
2023-03-21T04:45:55.482Z,25.39
2023-03-21T04:49:55.389Z,25.42
2023-03-21T04:53:55.350Z,25.39
2023-03-21T04:57:55.298Z,25.42
2023-03-21T05:01:55.300Z,25.39
2023-03-21T05:05:55.255Z,25.39
2023-03-21T05:09:55.215Z,25.37
2023-03-21T05:13:55.168Z,25.37
2023-03-21T05:17:55.129Z,25.34
2023-03-21T05:21:55.333Z,25.34
2023-03-21T05:25:55.249Z,25.33
2023-03-21T05:29:55.202Z,25.33
2023-03-21T05:33:55.190Z,25.32
2023-03-21T05:37:55.188Z,25.30
2023-03-21T05:41:55.151Z,25.34
2023-03-21T05:45:55.098Z,25.33
2023-03-21T05:49:55.031Z,25.34
2023-03-21T05:53:55.036Z,25.33
2023-03-21T05:57:54.959Z,25.22
2023-03-21T06:01:54.927Z,25.12
2023-03-21T06:05:54.905Z,24.92
2023-03-21T06:09:54.854Z,24.76
2023-03-21T06:13:54.803Z,24.69
2023-03-21T06:17:54.783Z,24.81
2023-03-21T06:21:54.790Z,24.61
2023-03-21T06:25:54.803Z,24.48
2023-03-21T06:29:54.945Z,24.55
2023-03-21T06:33:55.032Z,24.68
2023-03-21T06:37:55.329Z,24.69
2023-03-21T06:41:55.305Z,24.79
2023-03-21T06:45:55.352Z,24.86
2023-03-21T06:49:55.444Z,24.99
2023-03-21T06:53:55.489Z,25.22
2023-03-21T06:57:55.598Z,25.36
2023-03-21T07:01:55.547Z,25.53
2023-03-21T07:05:55.538Z,25.46
2023-03-21T07:09:55.481Z,25.50
2023-03-21T07:13:55.435Z,25.64
2023-03-21T07:17:55.393Z,25.79
2023-03-21T07:21:55.359Z,25.90
2023-03-21T07:25:55.423Z,26.01
2023-03-21T07:29:55.425Z,26.13
2023-03-21T07:33:55.224Z,26.13
2023-03-21T07:37:55.186Z,26.14
2023-03-21T07:41:55.270Z,26.08
2023-03-21T07:45:55.160Z,25.74
2023-03-21T07:49:55.150Z,25.63
2023-03-21T07:53:55.158Z,25.56
2023-03-21T07:57:55.078Z,25.66
2023-03-21T08:01:55.067Z,25.80
2023-03-21T08:05:54.962Z,25.91
2023-03-21T08:09:54.972Z,26.01
2023-03-21T08:13:54.905Z,26.11
2023-03-21T08:17:54.879Z,26.21
2023-03-21T08:21:54.850Z,26.32
2023-03-21T08:25:54.762Z,26.38
2023-03-21T08:29:54.764Z,26.42
2023-03-21T08:33:54.749Z,26.48
2023-03-21T08:37:54.716Z,26.47
2023-03-21T08:41:54.684Z,26.42
2023-03-21T08:45:54.776Z,26.42
2023-03-21T08:49:54.584Z,26.49
2023-03-21T08:53:54.551Z,26.55
2023-03-21T08:57:54.486Z,26.59
2023-03-21T09:01:54.504Z,26.63
2023-03-21T09:05:54.429Z,26.62
2023-03-21T09:10:08.450Z,26.65
2023-03-21T09:13:55.385Z,26.65
2023-03-21T09:17:54.747Z,26.68
2023-03-21T09:21:54.358Z,26.65
2023-03-21T09:25:54.905Z,26.62
2023-03-21T09:29:54.750Z,26.69
2023-03-21T09:33:54.833Z,26.67
2023-03-21T09:37:54.823Z,26.55
2023-03-21T09:41:55.110Z,26.44
2023-03-21T09:45:54.985Z,26.41
2023-03-21T09:50:01.694Z,26.54
2023-03-21T09:53:57.109Z,26.68
2023-03-21T09:57:55.034Z,26.79
2023-03-21T10:01:55.042Z,26.85
2023-03-21T10:05:55.004Z,26.91
2023-03-21T10:09:54.971Z,26.98
2023-03-21T10:13:54.908Z,26.96
2023-03-21T10:17:54.876Z,27.01
2023-03-21T10:22:03.638Z,27.03
2023-03-21T10:25:55.797Z,27.06
2023-03-21T10:29:54.766Z,27.12
2023-03-21T10:33:54.730Z,27.16
2023-03-21T10:37:54.857Z,27.25
2023-03-21T10:41:54.779Z,27.19
2023-03-21T10:45:55.031Z,27.12
2023-03-21T10:50:11.150Z,27.06
2023-03-21T10:53:55.938Z,27.05
2023-03-21T10:57:54.895Z,27.05
2023-03-21T11:01:54.915Z,27.05
2023-03-21T11:05:55.097Z,27.05
2023-03-21T11:09:55.292Z,27.03
2023-03-21T11:13:55.468Z,27.10
2023-03-21T11:17:55.580Z,27.12
2023-03-21T11:21:55.868Z,27.17
2023-03-21T11:25:55.914Z,27.21
2023-03-21T11:29:56.082Z,27.21
2023-03-21T11:33:56.223Z,27.23
2023-03-21T11:37:56.472Z,27.25
2023-03-21T11:41:56.430Z,27.22
2023-03-21T11:45:56.429Z,27.21
2023-03-21T11:50:04.659Z,27.22
2023-03-21T11:53:57.224Z,27.23
2023-03-21T11:57:57.991Z,27.22
2023-03-21T12:01:56.199Z,27.25
2023-03-21T12:05:56.328Z,27.22
2023-03-21T12:09:56.488Z,27.23
2023-03-21T12:13:56.680Z,27.23
2023-03-21T12:17:56.861Z,27.22
2023-03-21T12:21:56.941Z,27.23
2023-03-21T12:25:57.083Z,27.21
2023-03-21T12:29:57.342Z,27.21
2023-03-21T12:33:57.444Z,27.19
2023-03-21T12:37:57.991Z,27.19
2023-03-21T12:41:57.396Z,27.15
2023-03-21T12:45:57.437Z,27.13
2023-03-21T12:49:57.298Z,27.16
2023-03-21T12:53:57.266Z,27.13
2023-03-21T12:57:58.034Z,27.12
2023-03-21T13:01:57.278Z,27.10
2023-03-21T13:05:57.179Z,27.06
2023-03-21T13:09:57.168Z,27.02
2023-03-21T13:13:57.097Z,26.98
2023-03-21T13:17:57.159Z,26.98
2023-03-21T13:21:57.032Z,26.96
2023-03-21T13:25:56.975Z,26.93
2023-03-21T13:29:56.984Z,26.92
2023-03-21T13:33:56.983Z,26.93
2023-03-21T13:37:56.895Z,26.91
2023-03-21T13:41:56.829Z,26.89
2023-03-21T13:45:56.938Z,26.91
2023-03-21T13:49:56.923Z,26.88
2023-03-21T13:53:57.035Z,26.83
2023-03-21T13:57:57.104Z,26.85
2023-03-21T14:01:57.182Z,26.82
2023-03-21T14:05:57.468Z,26.82
2023-03-21T14:09:57.410Z,26.81
2023-03-21T14:13:57.294Z,26.82
2023-03-21T14:17:57.240Z,26.81
2023-03-21T14:21:57.345Z,26.79
2023-03-21T14:25:57.186Z,26.81
2023-03-21T14:29:57.170Z,26.79
2023-03-21T14:33:57.133Z,26.77
2023-03-21T14:37:57.181Z,26.78
2023-03-21T14:41:57.051Z,26.75
2023-03-21T14:45:57.021Z,26.75
2023-03-21T14:49:56.962Z,26.69
2023-03-21T14:53:56.925Z,26.68
2023-03-21T14:57:56.995Z,26.67
2023-03-21T15:01:57.282Z,26.67
2023-03-21T15:05:57.159Z,26.62
2023-03-21T15:09:57.229Z,26.65
2023-03-21T15:13:57.143Z,26.63
2023-03-21T15:17:57.065Z,26.65
2023-03-21T15:21:57.043Z,26.62
2023-03-21T15:25:57.073Z,26.61
2023-03-21T15:29:56.986Z,26.61
2023-03-21T15:33:56.918Z,26.59
2023-03-21T15:37:56.921Z,26.56
2023-03-21T15:41:56.952Z,26.54
2023-03-21T15:45:56.888Z,26.56
2023-03-21T15:49:56.765Z,26.54
2023-03-21T15:53:56.729Z,26.52
2023-03-21T15:57:56.773Z,26.49
2023-03-21T16:11:55.933Z,26.45
2023-03-21T16:15:56.188Z,26.45
2023-03-21T16:19:56.296Z,26.42
2023-03-21T16:23:56.423Z,26.42
2023-03-21T16:27:56.480Z,26.39
2023-03-21T16:31:56.529Z,26.38
2023-03-21T16:35:56.568Z,26.34
2023-03-21T16:39:56.660Z,26.34
2023-03-21T16:43:56.564Z,26.32
2023-03-21T16:47:56.579Z,26.32
2023-03-21T16:51:56.555Z,26.31
2023-03-21T16:55:56.578Z,26.27
2023-03-21T16:59:56.523Z,26.24
2023-03-21T17:03:56.530Z,26.27
2023-03-21T17:07:56.530Z,26.23
2023-03-21T17:11:56.485Z,26.23
2023-03-21T17:15:56.515Z,26.23
2023-03-21T17:19:56.499Z,26.20
2023-03-21T17:23:56.495Z,26.18
2023-03-21T17:27:56.504Z,26.18
2023-03-21T17:31:56.479Z,26.16
2023-03-21T17:35:56.525Z,26.14
2023-03-21T17:39:56.480Z,26.17
2023-03-21T17:43:56.492Z,26.13
2023-03-21T17:47:56.605Z,26.11
2023-03-21T17:51:56.612Z,26.08
2023-03-21T17:55:56.645Z,26.08
2023-03-21T17:59:56.693Z,26.07
2023-03-21T18:03:56.679Z,26.08
2023-03-21T18:08:12.856Z,26.05
2023-03-21T18:11:57.635Z,26.05
2023-03-21T18:15:56.708Z,26.04
2023-03-21T18:19:56.725Z,26.04
2023-03-21T18:23:56.523Z,26.03
2023-03-21T18:28:10.621Z,26.00
2023-03-21T18:32:05.975Z,26.01
2023-03-21T18:35:59.583Z,26.00
2023-03-21T18:39:56.373Z,26.00
2023-03-21T18:44:04.752Z,26.00
2023-03-21T18:47:57.332Z,25.98
2023-03-21T18:51:56.310Z,25.95
2023-03-21T18:55:56.310Z,26.00
2023-03-21T18:59:56.217Z,25.98
2023-03-21T19:04:16.505Z,26.00
2023-03-21T19:07:57.102Z,26.01
2023-03-21T19:11:56.093Z,26.01
2023-03-21T19:15:56.343Z,26.03
2023-03-21T19:19:56.026Z,26.01
2023-03-21T19:27:56.934Z,25.98
2023-03-21T19:31:55.950Z,25.98
2023-03-21T19:36:13.029Z,25.95
2023-03-21T19:39:56.841Z,25.93
2023-03-21T19:43:56.658Z,25.88
2023-03-21T19:47:55.824Z,25.90
2023-03-21T19:51:55.753Z,25.86
2023-03-21T19:55:56.037Z,25.88
2023-03-21T19:59:55.770Z,25.88
2023-03-21T20:03:55.880Z,25.86
2023-03-21T20:07:55.929Z,25.90
2023-03-21T20:11:56.035Z,25.91
2023-03-21T20:16:00.381Z,25.87
2023-03-21T20:19:57.076Z,25.88
2023-03-21T20:23:56.004Z,25.87
2023-03-21T20:28:12.645Z,25.90
2023-03-21T20:31:56.986Z,25.88
2023-03-21T20:39:56.928Z,25.86
2023-03-21T20:44:39.085Z,25.83
2023-03-21T20:47:56.855Z,25.84
2023-03-21T20:52:49.773Z,25.84
2023-03-21T20:55:56.738Z,25.81
2023-03-21T20:59:55.704Z,25.81
2023-03-21T21:03:55.702Z,25.80
2023-03-21T21:07:55.634Z,25.80
2023-03-21T21:12:11.358Z,25.80
2023-03-21T21:15:56.743Z,25.79
2023-03-21T21:19:55.686Z,25.81
2023-03-21T21:23:55.584Z,25.79
2023-03-21T21:27:55.568Z,25.77
2023-03-21T21:31:55.591Z,25.77
2023-03-21T21:35:55.717Z,25.74
2023-03-21T21:39:55.863Z,25.76
2023-03-21T21:43:55.944Z,25.77
2023-03-21T21:47:56.132Z,25.74
2023-03-21T21:51:56.348Z,25.73
2023-03-21T21:55:56.474Z,25.74
2023-03-21T21:59:56.605Z,25.73
2023-03-21T22:03:56.716Z,25.72
2023-03-21T22:07:56.887Z,25.70
2023-03-21T22:11:56.955Z,25.70
2023-03-21T22:15:57.125Z,25.72
2023-03-21T22:20:05.765Z,25.69
2023-03-21T22:23:58.175Z,25.67
2023-03-21T22:27:57.169Z,25.69
2023-03-21T22:31:57.102Z,25.67
2023-03-21T22:35:57.184Z,25.69
2023-03-21T22:39:57.348Z,25.66
2023-03-21T22:44:04.129Z,25.69
2023-03-21T22:47:57.568Z,25.69
2023-03-21T22:51:57.436Z,25.69
2023-03-21T22:55:57.403Z,25.67
2023-03-21T22:59:57.343Z,25.70
2023-03-21T23:03:57.374Z,25.69
2023-03-21T23:07:57.321Z,25.67
2023-03-21T23:11:57.254Z,25.67
2023-03-21T23:15:57.308Z,25.66
2023-03-21T23:19:57.215Z,25.66
2023-03-21T23:23:57.297Z,25.67
2023-03-21T23:27:57.474Z,25.64
2023-03-21T23:31:57.630Z,25.66
2023-03-21T23:35:57.946Z,25.67
2023-03-21T23:39:57.999Z,25.69
2023-03-21T23:43:58.184Z,25.66
2023-03-21T23:47:58.413Z,25.64
2023-03-21T23:51:58.563Z,25.66
2023-03-21T23:55:58.740Z,25.66
2023-03-21T23:59:58.915Z,25.62
